Time;durP1;ratioP1;P1;durP2;ratioP2;P2;SDS_P1;SDS_P2;PMS_P1;PMS_P2;Temp;Humidity;BMP_temperature;BMP_pressure;BME280_temperature;BME280_humidity;BME280_pressure;Samples;Min_cycle;Max_cycle;Signal;HPM_P1;HPM_P2
2021/12/21 00:00:46;;;;;;;;;;;-5.60;99.90;;;;;;5078119;28;19908;-89
2021/12/21 00:03:11;;;;;;;;;;;-5.70;99.90;;;;;;5091346;28;19908;-88
2021/12/21 00:05:37;;;;;;;;;;;-5.70;99.90;;;;;;5098149;28;19999;-87
2021/12/21 00:08:04;;;;;;;;;;;-5.50;99.90;;;;;;5075439;28;19993;-87
2021/12/21 00:10:31;;;;;;;;;;;-5.60;99.90;;;;;;5078095;28;19912;-87
2021/12/21 00:18:01;;;;;;;;;;;-5.50;99.90;;;;;;5100798;28;19915;-87
2021/12/21 00:25:38;;;;;;;;;;;-5.70;99.90;;;;;;5104238;28;20383;-87
2021/12/21 00:28:04;;;;;;;;;;;-5.90;99.90;;;;;;5060364;28;19908;-87
2021/12/21 00:30:29;;;;;;;;;;;-5.90;99.90;;;;;;5085046;28;19911;-87
2021/12/21 00:32:55;;;;;;;;;;;-6.00;99.90;;;;;;5095844;28;19961;-87
2021/12/21 00:35:20;;;;;;;;;;;-6.00;99.90;;;;;;5077102;28;19908;-87
2021/12/21 00:37:47;;;;;;;;;;;-5.90;99.90;;;;;;5078106;28;19908;-87
2021/12/21 00:40:12;;;;;;;;;;;-6.00;99.90;;;;;;5074695;28;19916;-87
2021/12/21 00:42:38;;;;;;;;;;;-6.00;99.90;;;;;;5097791;28;19915;-87
2021/12/21 00:45:04;;;;;;;;;;;-5.80;99.90;;;;;;5097423;28;19908;-87
2021/12/21 00:47:29;;;;;;;;;;;-5.90;99.90;;;;;;5081411;28;19919;-87
2021/12/21 00:50:00;;;;;;;;;;;-5.90;99.90;;;;;;5093851;28;19920;-86
2021/12/21 00:52:26;;;;;;;;;;;-5.90;99.90;;;;;;5073477;28;19908;-87
2021/12/21 00:54:52;;;;;;;;;;;-5.90;99.90;;;;;;5093782;28;19907;-87
2021/12/21 00:57:17;;;;;;;;;;;-5.90;99.90;;;;;;5070380;28;20295;-87
2021/12/21 00:59:43;;;;;;;;;;;-5.80;99.90;;;;;;5066290;28;19908;-87
2021/12/21 01:02:09;;;;;;;;;;;-5.80;99.90;;;;;;5094944;28;19912;-87
2021/12/21 01:04:40;;;;;;;;;;;-5.70;99.90;;;;;;5086738;28;20371;-86
2021/12/21 01:07:17;;;;;;;;;;;-5.70;99.90;;;;;;5076914;28;19908;-87
2021/12/21 01:15:21;;;;;;;;;;;-6.10;99.90;;;;;;5027744;28;19999;-87
2021/12/21 01:18:02;;;;;;;;;;;-5.80;99.90;;;;;;5086648;28;19954;-87
2021/12/21 01:20:42;;;;;;;;;;;-5.90;99.90;;;;;;5056822;28;19956;-87
2021/12/21 01:26:01;;;;;;;;;;;-6.00;99.90;;;;;;5096501;28;19955;-87
2021/12/21 01:36:00;;;;;;;;;;;-6.00;99.90;;;;;;5094568;28;19912;-87
2021/12/21 01:40:59;;;;;;;;;;;-6.10;99.90;;;;;;5108644;28;20325;-87
2021/12/21 01:51:25;;;;;;;;;;;-5.90;99.90;;;;;;5114820;28;19915;-87
2021/12/21 01:53:51;;;;;;;;;;;-5.80;99.90;;;;;;5093887;28;19911;-87
2021/12/21 01:56:17;;;;;;;;;;;-5.60;99.90;;;;;;5082688;28;19912;-87
2021/12/21 01:58:43;;;;;;;;;;;-5.70;99.90;;;;;;5101447;28;19908;-86
2021/12/21 02:01:14;;;;;;;;;;;-5.80;99.90;;;;;;5075551;28;19915;-87
2021/12/21 02:03:41;;;;;;;;;;;-5.90;99.90;;;;;;5093320;28;19912;-86
2021/12/21 02:06:07;;;;;;;;;;;-6.10;99.90;;;;;;5068250;28;20010;-87
2021/12/21 02:08:32;;;;;;;;;;;-6.20;99.90;;;;;;5091968;28;20038;-87
2021/12/21 02:11:03;;;;;;;;;;;-6.20;99.90;;;;;;5084675;28;20259;-87
2021/12/21 02:13:32;;;;;;;;;;;-6.10;99.90;;;;;;5091817;28;20003;-87
2021/12/21 02:15:58;;;;;;;;;;;-6.10;99.90;;;;;;5087123;28;19912;-87
2021/12/21 02:18:40;;;;;;;;;;;-6.10;99.90;;;;;;5077682;28;19908;-87
2021/12/21 02:21:33;;;;;;;;;;;-6.10;99.90;;;;;;5075306;28;19930;-86
2021/12/21 02:23:56;;;;;;;;;;;-6.10;99.90;;;;;;5084886;28;19908;-87
2021/12/21 02:31:36;;;;;;;;;;;-6.20;99.90;;;;;;5094445;28;19962;-87
2021/12/21 02:34:02;;;;;;;;;;;-6.20;99.90;;;;;;5074628;28;19908;-87
2021/12/21 02:36:30;;;;;;;;;;;-6.10;99.90;;;;;;5074894;28;19916;-87
2021/12/21 02:38:56;;;;;;;;;;;-6.10;99.90;;;;;;5072614;28;19927;-87
2021/12/21 02:41:22;;;;;;;;;;;-6.00;99.90;;;;;;5088815;28;19919;-87
2021/12/21 02:43:47;;;;;;;;;;;-6.00;99.90;;;;;;5073887;28;19912;-87
2021/12/21 02:46:13;;;;;;;;;;;-5.90;99.90;;;;;;5093381;28;20003;-87
2021/12/21 02:48:38;;;;;;;;;;;-6.00;99.90;;;;;;5076036;28;19990;-86
2021/12/21 02:51:04;;;;;;;;;;;-5.90;99.90;;;;;;5085403;28;20363;-87
2021/12/21 02:53:29;;;;;;;;;;;-6.00;99.90;;;;;;5074722;28;20312;-87
2021/12/21 02:55:55;;;;;;;;;;;-6.10;99.90;;;;;;5092924;28;19934;-87
2021/12/21 02:58:20;;;;;;;;;;;-6.20;99.90;;;;;;5074523;28;19908;-86
2021/12/21 03:00:47;;;;;;;;;;;-6.40;99.90;;;;;;5074919;28;19934;-87
2021/12/21 03:03:13;;;;;;;;;;;-6.50;99.90;;;;;;5088530;28;19957;-86
2021/12/21 03:05:40;;;;;;;;;;;-6.40;99.90;;;;;;5105032;28;19912;-87
2021/12/21 03:08:18;;;;;;;;;;;-6.20;99.90;;;;;;5074953;28;19908;-87
2021/12/21 03:16:19;;;;;;;;;;;-6.20;99.90;;;;;;5107838;28;20416;-86
2021/12/21 03:18:45;;;;;;;;;;;-6.40;99.90;;;;;;5068148;28;19909;-88
2021/12/21 03:21:10;;;;;;;;;;;-6.40;99.90;;;;;;5074855;28;20101;-87
2021/12/21 03:23:36;;;;;;;;;;;-6.60;99.90;;;;;;5075064;28;19909;-87
2021/12/21 03:26:02;;;;;;;;;;;-6.60;99.90;;;;;;5093011;28;20371;-87
2021/12/21 03:28:28;;;;;;;;;;;-6.50;99.90;;;;;;5074596;28;19951;-87
2021/12/21 03:30:54;;;;;;;;;;;-6.50;99.90;;;;;;5087492;28;19909;-87
2021/12/21 03:33:19;;;;;;;;;;;-6.60;99.90;;;;;;5076602;28;19912;-88
2021/12/21 03:35:45;;;;;;;;;;;-6.50;99.90;;;;;;5078274;28;19935;-86
2021/12/21 03:38:10;;;;;;;;;;;-6.60;99.90;;;;;;5092407;28;20563;-87
2021/12/21 03:40:36;;;;;;;;;;;-6.50;99.90;;;;;;5100987;28;19922;-87
2021/12/21 03:43:02;;;;;;;;;;;-6.60;99.90;;;;;;5081972;28;19928;-87
2021/12/21 03:45:31;;;;;;;;;;;-6.70;99.90;;;;;;5098620;28;19908;-87
2021/12/21 03:47:57;;;;;;;;;;;-6.50;99.90;;;;;;5079971;28;19975;-86
2021/12/21 03:50:22;;;;;;;;;;;-6.50;99.90;;;;;;5096310;28;19969;-86
2021/12/21 03:52:48;;;;;;;;;;;-6.60;99.90;;;;;;5074969;28;20290;-86
2021/12/21 03:55:13;;;;;;;;;;;-6.60;99.90;;;;;;5085175;28;19907;-87
2021/12/21 03:57:39;;;;;;;;;;;-6.60;99.90;;;;;;5097503;28;19916;-86
2021/12/21 04:00:06;;;;;;;;;;;-6.60;99.90;;;;;;5083891;28;19908;-86
2021/12/21 04:02:31;;;;;;;;;;;-6.50;99.90;;;;;;5090502;28;20007;-85
2021/12/21 04:04:59;;;;;;;;;;;-6.60;99.90;;;;;;5077969;28;19948;-87
2021/12/21 04:07:24;;;;;;;;;;;-6.60;99.90;;;;;;5077772;28;19934;-86
2021/12/21 04:09:50;;;;;;;;;;;-6.70;99.90;;;;;;5096678;28;19912;-87
2021/12/21 04:12:16;;;;;;;;;;;-6.60;99.90;;;;;;5098546;28;19998;-89
2021/12/21 04:14:42;;;;;;;;;;;-6.70;99.90;;;;;;5097342;28;19908;-87
2021/12/21 04:17:07;;;;;;;;;;;-6.80;99.90;;;;;;5078008;28;20286;-88
2021/12/21 04:19:33;;;;;;;;;;;-6.70;99.90;;;;;;5078041;28;20370;-88
2021/12/21 04:21:58;;;;;;;;;;;-6.70;99.90;;;;;;5077510;28;19920;-86
2021/12/21 04:24:24;;;;;;;;;;;-6.90;99.90;;;;;;5077145;28;20306;-87
2021/12/21 04:26:49;;;;;;;;;;;-6.90;99.90;;;;;;5095793;28;19912;-87
2021/12/21 04:29:15;;;;;;;;;;;-6.90;99.90;;;;;;5077408;28;19908;-87
2021/12/21 04:31:40;;;;;;;;;;;-6.70;99.90;;;;;;5076915;28;19999;-87
2021/12/21 04:34:06;;;;;;;;;;;-6.80;99.90;;;;;;5093508;28;19912;-87
2021/12/21 04:36:32;;;;;;;;;;;-6.80;99.90;;;;;;5094647;28;19916;-86
2021/12/21 04:39:01;;;;;;;;;;;-6.70;99.90;;;;;;5083010;28;20291;-87
2021/12/21 04:41:28;;;;;;;;;;;-6.70;99.90;;;;;;5075935;28;20006;-87
2021/12/21 04:43:54;;;;;;;;;;;-6.60;99.90;;;;;;5075892;28;19990;-86
2021/12/21 04:46:20;;;;;;;;;;;-6.70;99.90;;;;;;5076457;28;19912;-87
2021/12/21 04:48:46;;;;;;;;;;;-6.70;99.90;;;;;;5077113;28;20379;-87
2021/12/21 04:51:12;;;;;;;;;;;-6.60;99.90;;;;;;5077205;28;19908;-87
2021/12/21 04:53:37;;;;;;;;;;;-6.70;99.90;;;;;;5095177;28;19973;-87
2021/12/21 04:56:03;;;;;;;;;;;-6.70;99.90;;;;;;5077434;28;19930;-87
2021/12/21 04:58:29;;;;;;;;;;;-6.70;99.90;;;;;;5076890;28;19908;-87
2021/12/21 05:00:55;;;;;;;;;;;-7.00;99.90;;;;;;5095315;28;19908;-87
2021/12/21 05:03:20;;;;;;;;;;;-7.00;99.90;;;;;;5076947;28;19934;-87
2021/12/21 05:05:46;;;;;;;;;;;-6.90;99.90;;;;;;5076775;28;19950;-87
2021/12/21 05:08:26;;;;;;;;;;;-6.80;99.90;;;;;;5090128;28;19914;-88
2021/12/21 05:10:56;;;;;;;;;;;-6.70;99.90;;;;;;5097201;28;19955;-87
2021/12/21 05:13:23;;;;;;;;;;;-6.80;99.90;;;;;;5097208;28;20430;-88
2021/12/21 05:15:49;;;;;;;;;;;-6.80;99.90;;;;;;5103221;28;19919;-87
2021/12/21 05:18:15;;;;;;;;;;;-6.90;99.90;;;;;;5095791;28;19908;-87
2021/12/21 05:20:41;;;;;;;;;;;-6.90;99.90;;;;;;5083132;28;19931;-88
2021/12/21 05:23:07;;;;;;;;;;;-6.90;99.90;;;;;;5094235;28;20264;-86
2021/12/21 05:25:32;;;;;;;;;;;-6.90;99.90;;;;;;5096905;28;19908;-87
2021/12/21 05:27:58;;;;;;;;;;;-7.00;99.90;;;;;;5076393;28;19914;-87
2021/12/21 05:30:24;;;;;;;;;;;-7.00;99.90;;;;;;5076371;28;19908;-87
2021/12/21 05:32:50;;;;;;;;;;;-6.80;99.90;;;;;;5076073;28;20387;-87
2021/12/21 05:35:16;;;;;;;;;;;-6.90;99.90;;;;;;5076218;28;19908;-87
2021/12/21 05:37:42;;;;;;;;;;;-6.90;99.90;;;;;;5111744;28;19911;-87
2021/12/21 05:40:11;;;;;;;;;;;-6.90;99.90;;;;;;5097601;28;19923;-87
2021/12/21 05:42:37;;;;;;;;;;;-6.80;99.90;;;;;;5076084;28;19908;-88
2021/12/21 05:45:03;;;;;;;;;;;-6.80;99.90;;;;;;5075962;28;19915;-87
2021/12/21 05:47:29;;;;;;;;;;;-7.00;99.90;;;;;;5075951;28;20417;-87
2021/12/21 05:49:54;;;;;;;;;;;-7.10;99.90;;;;;;5076288;28;19909;-87
2021/12/21 05:52:20;;;;;;;;;;;-7.10;99.90;;;;;;5075998;28;19908;-88
2021/12/21 05:54:45;;;;;;;;;;;-7.10;99.90;;;;;;5075553;28;19915;-86
2021/12/21 05:57:11;;;;;;;;;;;-7.10;99.90;;;;;;5075457;28;19913;-87
2021/12/21 05:59:36;;;;;;;;;;;-7.00;99.90;;;;;;5075906;28;19908;-87
2021/12/21 06:02:02;;;;;;;;;;;-7.00;99.90;;;;;;5075654;28;20509;-88
2021/12/21 06:04:28;;;;;;;;;;;-7.00;99.90;;;;;;5075860;28;20374;-88
2021/12/21 06:06:53;;;;;;;;;;;-7.10;99.90;;;;;;5075577;28;19908;-88
2021/12/21 06:09:19;;;;;;;;;;;-7.00;99.90;;;;;;5075272;28;19912;-88
2021/12/21 06:12:02;;;;;;;;;;;-6.90;99.90;;;;;;5075666;28;19908;-88
2021/12/21 06:23:18;;;;;;;;;;;-7.40;99.90;;;;;;5093997;28;19997;-89
2021/12/21 06:25:53;;;;;;;;;;;-7.30;99.90;;;;;;5093663;28;19908;-87
2021/12/21 06:28:19;;;;;;;;;;;-7.20;99.90;;;;;;5075650;28;19908;-87
2021/12/21 06:30:44;;;;;;;;;;;-7.20;99.90;;;;;;5093587;28;19908;-87
2021/12/21 06:33:10;;;;;;;;;;;-7.40;99.90;;;;;;5075169;28;19947;-87
2021/12/21 06:35:36;;;;;;;;;;;-7.50;99.90;;;;;;5093414;28;20313;-88
2021/12/21 06:38:02;;;;;;;;;;;-7.50;99.90;;;;;;5075076;28;19909;-88
2021/12/21 06:40:28;;;;;;;;;;;-7.50;99.90;;;;;;5075358;28;20015;-87
2021/12/21 06:42:54;;;;;;;;;;;-7.40;99.90;;;;;;5093320;28;19908;-88
2021/12/21 06:45:43;;;;;;;;;;;-7.50;99.90;;;;;;5075312;28;19970;-88
2021/12/21 06:53:41;;;;;;;;;;;-7.30;99.90;;;;;;5073355;28;19908;-87
2021/12/21 06:56:08;;;;;;;;;;;-7.30;99.90;;;;;;5054663;28;19913;-87
2021/12/21 06:58:33;;;;;;;;;;;-7.30;99.90;;;;;;5055197;28;20278;-88
2021/12/21 07:00:59;;;;;;;;;;;-7.20;99.90;;;;;;5070494;28;19912;-88
2021/12/21 07:03:25;;;;;;;;;;;-7.40;99.90;;;;;;5075036;28;19961;-88
2021/12/21 07:05:51;;;;;;;;;;;-7.40;99.90;;;;;;5074536;28;19909;-87
2021/12/21 07:08:22;;;;;;;;;;;-7.50;99.90;;;;;;5091411;28;19908;-88
2021/12/21 07:11:36;;;;;;;;;;;-7.40;99.90;;;;;;5099646;28;19952;-87
2021/12/21 07:19:05;;;;;;;;;;;-7.60;99.90;;;;;;5098058;28;19947;-88
2021/12/21 07:21:30;;;;;;;;;;;-7.60;99.90;;;;;;5097088;28;19907;-88
2021/12/21 07:23:55;;;;;;;;;;;-7.60;99.90;;;;;;5078863;28;20397;-87
2021/12/21 07:26:21;;;;;;;;;;;-7.50;99.90;;;;;;5079061;28;19908;-87
2021/12/21 07:28:47;;;;;;;;;;;-7.20;99.90;;;;;;5079242;28;19908;-87
2021/12/21 07:31:12;;;;;;;;;;;-7.20;99.90;;;;;;5078878;28;19908;-88
2021/12/21 07:33:38;;;;;;;;;;;-7.10;99.90;;;;;;5078566;28;19929;-87
2021/12/21 07:36:03;;;;;;;;;;;-6.90;99.90;;;;;;5100722;28;19911;-88
2021/12/21 07:38:30;;;;;;;;;;;-6.80;99.90;;;;;;5101362;28;19912;-88
2021/12/21 07:40:57;;;;;;;;;;;-6.90;99.90;;;;;;5078962;28;19939;-88
2021/12/21 07:43:23;;;;;;;;;;;-7.00;99.90;;;;;;5096626;28;19908;-87
2021/12/21 07:45:48;;;;;;;;;;;-7.10;99.90;;;;;;5078911;28;19908;-88
2021/12/21 07:48:14;;;;;;;;;;;-7.30;99.90;;;;;;5078714;28;20248;-88
2021/12/21 07:50:39;;;;;;;;;;;-7.30;99.90;;;;;;5096867;28;19958;-88
2021/12/21 07:53:05;;;;;;;;;;;-7.20;99.90;;;;;;5077887;28;20255;-88
2021/12/21 07:55:31;;;;;;;;;;;-7.20;99.90;;;;;;5078418;28;19908;-88
2021/12/21 07:57:56;;;;;;;;;;;-7.30;99.90;;;;;;5078508;28;19916;-88
2021/12/21 08:00:23;;;;;;;;;;;-7.20;99.90;;;;;;5078268;28;19915;-87
2021/12/21 08:02:49;;;;;;;;;;;-7.20;99.90;;;;;;5078130;28;19908;-87
2021/12/21 08:05:15;;;;;;;;;;;-7.20;99.90;;;;;;5078362;28;20309;-87
2021/12/21 08:07:49;;;;;;;;;;;-7.10;99.90;;;;;;5113055;28;19908;-88
2021/12/21 08:10:29;;;;;;;;;;;-7.00;99.90;;;;;;5071930;28;20359;-87
2021/12/21 08:12:56;;;;;;;;;;;-7.00;99.90;;;;;;5065743;28;19908;-87
2021/12/21 08:15:23;;;;;;;;;;;-7.00;99.90;;;;;;5077836;28;19916;-87
2021/12/21 08:17:48;;;;;;;;;;;-6.80;99.90;;;;;;5077752;28;19934;-88
2021/12/21 08:20:14;;;;;;;;;;;-6.60;99.90;;;;;;5077978;28;19908;-88
2021/12/21 08:22:39;;;;;;;;;;;-6.50;99.90;;;;;;5103352;28;19912;-87
2021/12/21 08:25:06;;;;;;;;;;;-6.50;99.90;;;;;;5091009;28;19952;-89
2021/12/21 08:27:36;;;;;;;;;;;-6.30;99.90;;;;;;5082212;28;20032;-87
2021/12/21 08:30:02;;;;;;;;;;;-6.20;99.90;;;;;;5095864;28;19908;-88
2021/12/21 08:32:27;;;;;;;;;;;-6.10;99.90;;;;;;5077846;28;19947;-87
2021/12/21 08:34:53;;;;;;;;;;;-5.50;99.90;;;;;;5077638;28;20286;-88
2021/12/21 08:37:18;;;;;;;;;;;-5.20;99.90;;;;;;5109888;28;19922;-88
2021/12/21 08:39:44;;;;;;;;;;;-5.10;99.90;;;;;;5098119;28;20394;-87
2021/12/21 08:42:12;;;;;;;;;;;-5.00;99.90;;;;;;5085930;28;20003;-88
2021/12/21 08:44:39;;;;;;;;;;;-4.80;99.90;;;;;;5077941;28;19915;-88
2021/12/21 08:47:04;;;;;;;;;;;-4.50;99.90;;;;;;5078094;28;19916;-89
2021/12/21 08:49:30;;;;;;;;;;;-4.20;99.90;;;;;;5078119;28;19908;-87
2021/12/21 08:51:56;;;;;;;;;;;-4.20;99.90;;;;;;5077641;28;19908;-87
2021/12/21 08:54:22;;;;;;;;;;;-4.10;99.90;;;;;;5077472;28;19907;-88
2021/12/21 08:56:48;;;;;;;;;;;-3.70;99.90;;;;;;5077720;28;19919;-87
2021/12/21 08:59:15;;;;;;;;;;;-3.50;99.90;;;;;;5077197;28;19908;-88
2021/12/21 09:01:41;;;;;;;;;;;-3.30;99.90;;;;;;5077336;28;19909;-87
2021/12/21 09:04:07;;;;;;;;;;;-2.70;99.90;;;;;;5076831;28;19912;-88
2021/12/21 09:06:32;;;;;;;;;;;-2.00;99.90;;;;;;5084578;28;19908;-87
2021/12/21 09:08:57;;;;;;;;;;;-0.80;99.90;;;;;;5097038;28;20367;-87
2021/12/21 09:11:23;;;;;;;;;;;-0.30;99.90;;;;;;5115221;28;19954;-87
2021/12/21 09:13:48;;;;;;;;;;;0.00;99.90;;;;;;5096666;28;19908;-87
2021/12/21 09:16:14;;;;;;;;;;;0.30;99.90;;;;;;5079592;28;19912;-87
2021/12/21 09:18:39;;;;;;;;;;;1.20;99.90;;;;;;5076643;28;19950;-88
2021/12/21 09:21:05;;;;;;;;;;;1.80;99.90;;;;;;5076661;28;19912;-86
2021/12/21 09:23:32;;;;;;;;;;;2.00;99.90;;;;;;5094742;28;20317;-88
2021/12/21 09:25:57;;;;;;;;;;;2.30;99.90;;;;;;5076716;28;19915;-87
2021/12/21 09:28:23;;;;;;;;;;;2.10;99.90;;;;;;5077319;28;19908;-88
2021/12/21 09:30:48;;;;;;;;;;;2.30;99.90;;;;;;5076441;28;19908;-88
2021/12/21 09:33:14;;;;;;;;;;;3.10;99.90;;;;;;5095289;28;19918;-88
2021/12/21 09:35:40;;;;;;;;;;;3.40;99.90;;;;;;5077855;28;19916;-89
2021/12/21 09:38:05;;;;;;;;;;;2.00;99.90;;;;;;5092897;28;20380;-88
2021/12/21 09:40:31;;;;;;;;;;;2.70;99.90;;;;;;5086397;28;19924;-88
2021/12/21 09:42:58;;;;;;;;;;;3.30;99.90;;;;;;5056633;28;19909;-88
2021/12/21 09:45:23;;;;;;;;;;;4.10;99.90;;;;;;5056637;28;19999;-88
2021/12/21 09:47:49;;;;;;;;;;;3.70;99.90;;;;;;5056960;28;19963;-89
2021/12/21 09:50:16;;;;;;;;;;;2.70;99.90;;;;;;5059440;28;19914;-88
2021/12/21 09:52:42;;;;;;;;;;;2.20;99.90;;;;;;5070795;28;20278;-88
2021/12/21 09:55:11;;;;;;;;;;;3.10;99.90;;;;;;5076679;28;19916;-87
2021/12/21 09:57:36;;;;;;;;;;;3.70;99.90;;;;;;5077047;28;20155;-88
2021/12/21 10:00:04;;;;;;;;;;;5.10;99.90;;;;;;5076918;28;19950;-89
2021/12/21 10:02:33;;;;;;;;;;;5.40;99.90;;;;;;5076955;28;19919;-89
2021/12/21 10:05:02;;;;;;;;;;;6.40;99.90;;;;;;5076905;28;19915;-88
2021/12/21 10:07:28;;;;;;;;;;;7.50;99.50;;;;;;5091907;28;19953;-88
2021/12/21 10:10:14;;;;;;;;;;;8.20;96.50;;;;;;5096364;28;19907;-89
2021/12/21 10:12:44;;;;;;;;;;;8.30;95.60;;;;;;5086879;28;19912;-88
2021/12/21 10:15:15;;;;;;;;;;;7.70;95.70;;;;;;5094383;28;19923;-89
2021/12/21 10:17:51;;;;;;;;;;;7.90;95.70;;;;;;5075789;28;19919;-89
2021/12/21 10:20:32;;;;;;;;;;;7.30;95.20;;;;;;5075899;28;20131;-89
2021/12/21 10:22:57;;;;;;;;;;;7.40;96.00;;;;;;5077443;28;19955;-89
2021/12/21 10:25:24;;;;;;;;;;;6.50;96.10;;;;;;5080083;28;20444;-89
2021/12/21 10:27:49;;;;;;;;;;;5.90;96.80;;;;;;5076184;28;19999;-89
2021/12/21 10:30:15;;;;;;;;;;;5.80;97.70;;;;;;5076337;28;19959;-89
2021/12/21 10:32:52;;;;;;;;;;;4.70;99.20;;;;;;5075564;28;19919;-90
2021/12/21 10:35:18;;;;;;;;;;;4.90;99.80;;;;;;5093161;28;19908;-90
2021/12/21 10:37:47;;;;;;;;;;;3.60;99.90;;;;;;5094527;28;19948;-91
2021/12/21 10:40:21;;;;;;;;;;;2.90;99.90;;;;;;5073161;28;19916;-91
2021/12/21 10:42:51;;;;;;;;;;;3.40;99.90;;;;;;5065003;28;20409;-92
2021/12/21 10:45:18;;;;;;;;;;;3.70;99.90;;;;;;5094013;28;19936;-91
2021/12/21 10:47:46;;;;;;;;;;;3.60;99.90;;;;;;5076779;28;19915;-91
2021/12/21 10:50:12;;;;;;;;;;;3.60;99.90;;;;;;5071732;28;19948;-91
2021/12/21 10:52:39;;;;;;;;;;;3.30;99.90;;;;;;5090092;28;19908;-92
2021/12/21 10:55:05;;;;;;;;;;;2.30;99.90;;;;;;5094778;28;19915;-91
2021/12/21 10:57:34;;;;;;;;;;;1.80;99.90;;;;;;5062809;28;19914;-91
2021/12/21 11:00:00;;;;;;;;;;;2.30;99.90;;;;;;5074168;28;19912;-91
2021/12/21 11:02:32;;;;;;;;;;;2.30;99.90;;;;;;5094440;28;19908;-91
2021/12/21 11:05:03;;;;;;;;;;;1.30;99.90;;;;;;5093447;28;19974;-91
2021/12/21 11:07:43;;;;;;;;;;;0.90;99.90;;;;;;5084289;28;19929;-91
2021/12/21 11:10:12;;;;;;;;;;;0.50;99.90;;;;;;5096764;28;19908;-91
2021/12/21 11:12:42;;;;;;;;;;;0.10;99.90;;;;;;5077490;28;19934;-89
2021/12/21 11:15:09;;;;;;;;;;;0.00;99.90;;;;;;5076016;28;19908;-91
2021/12/21 11:17:34;;;;;;;;;;;-0.10;99.90;;;;;;5094104;28;20317;-91
2021/12/21 11:20:00;;;;;;;;;;;-0.10;99.90;;;;;;5077886;28;19969;-90
2021/12/21 11:22:28;;;;;;;;;;;-0.20;99.90;;;;;;5095084;28;19947;-90
2021/12/21 11:24:54;;;;;;;;;;;-0.30;99.90;;;;;;5078418;28;19908;-89
2021/12/21 11:27:20;;;;;;;;;;;-0.30;99.90;;;;;;5076692;28;20301;-90
2021/12/21 11:29:47;;;;;;;;;;;-0.40;99.90;;;;;;5094780;28;19912;-88
2021/12/21 11:32:12;;;;;;;;;;;-0.30;99.90;;;;;;5077938;28;19908;-89
2021/12/21 11:34:57;;;;;;;;;;;-0.30;99.90;;;;;;5077083;28;20271;-89
2021/12/21 11:37:25;;;;;;;;;;;-0.30;99.90;;;;;;5076342;28;19913;-88
2021/12/21 11:39:51;;;;;;;;;;;-0.30;99.90;;;;;;5075083;28;19960;-89
2021/12/21 11:42:24;;;;;;;;;;;-0.30;99.90;;;;;;5076685;28;19909;-90
2021/12/21 11:44:56;;;;;;;;;;;-0.40;99.90;;;;;;5094691;28;19923;-91
2021/12/21 11:47:27;;;;;;;;;;;-0.20;99.90;;;;;;5079101;28;20014;-89
2021/12/21 11:50:00;;;;;;;;;;;-0.40;99.90;;;;;;5078066;28;19908;-90
2021/12/21 11:52:27;;;;;;;;;;;-0.50;99.90;;;;;;5077225;28;19908;-90
2021/12/21 11:55:07;;;;;;;;;;;-0.50;99.90;;;;;;5080170;28;19985;-90
2021/12/21 11:57:38;;;;;;;;;;;-0.60;99.90;;;;;;5080239;28;19912;-89
2021/12/21 12:00:14;;;;;;;;;;;-0.60;99.90;;;;;;5081283;28;19916;-90
2021/12/21 12:02:41;;;;;;;;;;;-0.60;99.90;;;;;;5081014;28;19912;-90
2021/12/21 12:05:16;;;;;;;;;;;-0.50;99.90;;;;;;5080102;28;20045;-88
2021/12/21 12:07:42;;;;;;;;;;;-0.50;99.90;;;;;;5079300;28;19973;-89
2021/12/21 12:10:19;;;;;;;;;;;-0.50;99.90;;;;;;5099245;28;19908;-89
2021/12/21 12:12:44;;;;;;;;;;;-0.40;99.90;;;;;;5079106;28;19965;-88
2021/12/21 12:15:10;;;;;;;;;;;-0.40;99.90;;;;;;5078388;28;19912;-88
2021/12/21 12:18:01;;;;;;;;;;;-0.40;99.90;;;;;;5096414;28;19916;-88
2021/12/21 12:20:27;;;;;;;;;;;-0.40;99.90;;;;;;5096405;28;19998;-88
2021/12/21 12:23:01;;;;;;;;;;;-0.40;99.90;;;;;;5079626;28;19908;-88
2021/12/21 12:25:27;;;;;;;;;;;-0.50;99.90;;;;;;5081774;28;19912;-88
2021/12/21 12:27:53;;;;;;;;;;;-0.50;99.90;;;;;;5080344;28;19908;-88
2021/12/21 12:30:29;;;;;;;;;;;-0.50;99.90;;;;;;5097744;28;20006;-88
2021/12/21 12:32:59;;;;;;;;;;;-0.40;99.90;;;;;;5097790;28;19973;-88
2021/12/21 12:35:26;;;;;;;;;;;-0.40;99.90;;;;;;5096964;28;19908;-88
2021/12/21 12:37:52;;;;;;;;;;;-0.40;99.90;;;;;;5085741;28;19912;-88
2021/12/21 12:40:19;;;;;;;;;;;-0.40;99.90;;;;;;5077721;28;19942;-87
2021/12/21 12:43:04;;;;;;;;;;;-0.40;99.90;;;;;;5057784;28;19912;-89
2021/12/21 12:45:54;;;;;;;;;;;-0.40;99.90;;;;;;5072342;28;19916;-87
2021/12/21 12:48:22;;;;;;;;;;;-0.40;99.90;;;;;;5077451;28;20029;-88
2021/12/21 12:50:48;;;;;;;;;;;-0.30;99.90;;;;;;5094302;28;19908;-88
2021/12/21 12:53:13;;;;;;;;;;;-0.40;99.90;;;;;;5093890;28;20024;-87
2021/12/21 12:55:50;;;;;;;;;;;-0.40;99.90;;;;;;5095291;28;19959;-88
2021/12/21 12:58:21;;;;;;;;;;;-0.40;99.90;;;;;;5077345;28;19912;-88
2021/12/21 13:01:05;;;;;;;;;;;-0.30;99.90;;;;;;5077455;28;20306;-87
2021/12/21 13:03:35;;;;;;;;;;;-0.40;99.90;;;;;;5076709;28;19912;-87
2021/12/21 13:06:06;;;;;;;;;;;-0.20;99.90;;;;;;5095546;28;19912;-88
2021/12/21 13:08:32;;;;;;;;;;;-0.30;99.90;;;;;;5093444;28;19955;-87
2021/12/21 13:11:01;;;;;;;;;;;-0.30;99.90;;;;;;5097975;28;19915;-88
2021/12/21 13:13:40;;;;;;;;;;;-0.30;99.90;;;;;;5095869;28;19907;-88
2021/12/21 13:16:10;;;;;;;;;;;-0.30;99.90;;;;;;5088836;28;20353;-88
2021/12/21 13:18:42;;;;;;;;;;;-0.30;99.90;;;;;;5095703;28;19919;-88
2021/12/21 13:21:16;;;;;;;;;;;-0.30;99.90;;;;;;5077319;28;19908;-88
2021/12/21 13:23:42;;;;;;;;;;;-0.30;99.90;;;;;;5094936;28;19908;-88
2021/12/21 13:26:07;;;;;;;;;;;-0.20;99.90;;;;;;5093972;28;19909;-88
2021/12/21 13:28:44;;;;;;;;;;;-0.20;99.90;;;;;;5093737;28;20448;-88
2021/12/21 13:31:09;;;;;;;;;;;-0.30;99.90;;;;;;5093566;28;19908;-87
2021/12/21 13:33:38;;;;;;;;;;;-0.20;99.90;;;;;;5093566;28;19931;-88
2021/12/21 13:36:05;;;;;;;;;;;-0.20;99.90;;;;;;5097443;28;20271;-89
2021/12/21 13:38:31;;;;;;;;;;;-0.20;99.90;;;;;;5096990;28;19915;-88
2021/12/21 13:41:14;;;;;;;;;;;-0.20;99.90;;;;;;5097433;28;19916;-87
2021/12/21 13:43:51;;;;;;;;;;;-0.10;99.90;;;;;;5096618;28;19919;-88
2021/12/21 13:46:16;;;;;;;;;;;-0.10;99.90;;;;;;5114736;28;19907;-88
2021/12/21 13:48:49;;;;;;;;;;;-0.10;99.90;;;;;;5096560;28;20010;-88
2021/12/21 13:51:15;;;;;;;;;;;-0.20;99.90;;;;;;5096474;28;20396;-89
2021/12/21 13:53:43;;;;;;;;;;;-0.30;99.90;;;;;;5096356;28;19912;-88
2021/12/21 13:56:13;;;;;;;;;;;-0.30;99.90;;;;;;5096107;28;20011;-88
2021/12/21 13:58:39;;;;;;;;;;;-0.30;99.90;;;;;;5096291;28;19968;-88
2021/12/21 14:01:04;;;;;;;;;;;-0.30;99.90;;;;;;5096172;28;19912;-89
2021/12/21 14:03:44;;;;;;;;;;;-0.40;99.90;;;;;;5096240;28;19933;-88
2021/12/21 14:06:13;;;;;;;;;;;-0.20;99.90;;;;;;5091622;28;20420;-88
2021/12/21 14:08:42;;;;;;;;;;;-0.30;99.90;;;;;;5084918;28;19999;-89
2021/12/21 14:11:09;;;;;;;;;;;-0.30;99.90;;;;;;5114433;28;20007;-89
2021/12/21 14:13:36;;;;;;;;;;;-0.30;99.90;;;;;;5096187;28;20266;-88
2021/12/21 14:16:09;;;;;;;;;;;-0.30;99.90;;;;;;5082890;28;20397;-88
2021/12/21 14:18:37;;;;;;;;;;;-0.40;99.90;;;;;;5075724;28;19913;-88
2021/12/21 14:21:07;;;;;;;;;;;-0.40;99.90;;;;;;5075768;28;19908;-88
2021/12/21 14:23:33;;;;;;;;;;;-0.30;99.90;;;;;;5093930;28;20409;-88
2021/12/21 14:26:09;;;;;;;;;;;-0.40;99.90;;;;;;5075911;28;19908;-89
2021/12/21 14:28:44;;;;;;;;;;;-0.30;99.90;;;;;;5057769;28;19909;-88
2021/12/21 14:31:10;;;;;;;;;;;-0.30;99.90;;;;;;5072151;28;19935;-89
2021/12/21 14:33:48;;;;;;;;;;;-0.40;99.90;;;;;;5072229;28;20375;-89
2021/12/21 14:36:15;;;;;;;;;;;-0.60;99.90;;;;;;5065931;28;20290;-88
2021/12/21 14:39:10;;;;;;;;;;;-0.70;99.90;;;;;;5078004;28;19908;-88
2021/12/21 14:41:38;;;;;;;;;;;-0.70;99.90;;;;;;5055754;28;19912;-88
2021/12/21 14:44:10;;;;;;;;;;;-0.60;99.90;;;;;;5055141;28;19909;-87
2021/12/21 14:46:37;;;;;;;;;;;-0.80;99.90;;;;;;5073244;28;19991;-88
2021/12/21 14:49:08;;;;;;;;;;;-0.60;99.90;;;;;;5055580;28;19908;-88
2021/12/21 14:51:49;;;;;;;;;;;-0.70;99.90;;;;;;5073531;28;20390;-88
2021/12/21 14:54:23;;;;;;;;;;;-0.70;99.90;;;;;;5055174;28;19915;-88
2021/12/21 14:56:48;;;;;;;;;;;-0.70;99.90;;;;;;5054838;28;19920;-88
2021/12/21 14:59:14;;;;;;;;;;;-0.80;99.90;;;;;;5072777;28;20374;-88
2021/12/21 15:01:42;;;;;;;;;;;-0.70;99.90;;;;;;5075005;28;19958;-88
2021/12/21 15:04:25;;;;;;;;;;;-0.70;99.90;;;;;;5075118;28;19912;-88
2021/12/21 15:06:51;;;;;;;;;;;-0.80;99.90;;;;;;5075068;28;19958;-88
2021/12/21 15:09:17;;;;;;;;;;;-0.90;99.90;;;;;;5075940;28;19912;-88
2021/12/21 15:11:47;;;;;;;;;;;-0.90;99.90;;;;;;5075031;28;19908;-88
2021/12/21 15:14:13;;;;;;;;;;;-1.00;99.90;;;;;;5074827;28;19908;-88
2021/12/21 15:16:38;;;;;;;;;;;-1.20;99.90;;;;;;5078893;28;19963;-91
2021/12/21 15:19:04;;;;;;;;;;;-1.30;99.90;;;;;;5105478;28;19916;-88
2021/12/21 15:21:30;;;;;;;;;;;-1.40;99.90;;;;;;5074933;28;19912;-88
2021/12/21 15:24:00;;;;;;;;;;;-1.70;99.90;;;;;;5074708;28;20297;-88
2021/12/21 15:26:29;;;;;;;;;;;-2.00;99.90;;;;;;5074939;28;19908;-87
2021/12/21 15:28:55;;;;;;;;;;;-2.00;99.90;;;;;;5076386;28;19908;-88
2021/12/21 15:31:20;;;;;;;;;;;-2.10;99.90;;;;;;5078979;28;20434;-87